sensor_id;sensor_type;location;lat;lon;timestamp;P1;durP1;ratioP1;P2;durP2;ratioP2
67053;SDS011;53960;51.826;5.850;2024-02-23T00:00:00;2.63;;;0.82;;
67053;SDS011;53960;51.826;5.850;2024-02-23T00:02:30;3.83;;;0.60;;
67053;SDS011;53960;51.826;5.850;2024-02-23T00:04:56;3.17;;;0.70;;
67053;SDS011;53960;51.826;5.850;2024-02-23T00:07:21;3.33;;;0.77;;
67053;SDS011;53960;51.826;5.850;2024-02-23T00:09:46;4.73;;;0.87;;
67053;SDS011;53960;51.826;5.850;2024-02-23T00:12:12;2.30;;;0.60;;
67053;SDS011;53960;51.826;5.850;2024-02-23T00:14:38;3.65;;;0.73;;
67053;SDS011;53960;51.826;5.850;2024-02-23T00:17:04;3.53;;;0.73;;
67053;SDS011;53960;51.826;5.850;2024-02-23T00:19:30;2.63;;;0.60;;
67053;SDS011;53960;51.826;5.850;2024-02-23T00:21:58;2.58;;;0.60;;
67053;SDS011;53960;51.826;5.850;2024-02-23T00:24:26;3.20;;;0.70;;
67053;SDS011;53960;51.826;5.850;2024-02-23T00:26:52;3.37;;;0.70;;
67053;SDS011;53960;51.826;5.850;2024-02-23T00:29:17;5.63;;;0.73;;
67053;SDS011;53960;51.826;5.850;2024-02-23T00:31:43;5.97;;;0.70;;
67053;SDS011;53960;51.826;5.850;2024-02-23T00:34:10;6.10;;;0.90;;
67053;SDS011;53960;51.826;5.850;2024-02-23T00:36:38;6.07;;;1.10;;
67053;SDS011;53960;51.826;5.850;2024-02-23T00:39:04;6.73;;;1.10;;
67053;SDS011;53960;51.826;5.850;2024-02-23T00:41:32;5.38;;;1.30;;
67053;SDS011;53960;51.826;5.850;2024-02-23T00:43:57;5.45;;;1.30;;
67053;SDS011;53960;51.826;5.850;2024-02-23T00:46:23;6.63;;;1.50;;
67053;SDS011;53960;51.826;5.850;2024-02-23T00:48:48;7.73;;;1.40;;
67053;SDS011;53960;51.826;5.850;2024-02-23T00:51:13;7.47;;;1.60;;
67053;SDS011;53960;51.826;5.850;2024-02-23T00:53:39;6.63;;;1.73;;
67053;SDS011;53960;51.826;5.850;2024-02-23T00:56:04;8.63;;;2.17;;
67053;SDS011;53960;51.826;5.850;2024-02-23T00:58:30;8.43;;;2.22;;
67053;SDS011;53960;51.826;5.850;2024-02-23T01:00:55;7.57;;;2.27;;
67053;SDS011;53960;51.826;5.850;2024-02-23T01:03:21;8.60;;;2.33;;
67053;SDS011;53960;51.826;5.850;2024-02-23T01:05:46;7.43;;;1.83;;
67053;SDS011;53960;51.826;5.850;2024-02-23T01:08:11;6.53;;;1.97;;
67053;SDS011;53960;51.826;5.850;2024-02-23T01:10:37;9.20;;;2.00;;
67053;SDS011;53960;51.826;5.850;2024-02-23T01:13:02;7.33;;;1.83;;
67053;SDS011;53960;51.826;5.850;2024-02-23T01:15:27;6.87;;;2.00;;
67053;SDS011;53960;51.826;5.850;2024-02-23T01:17:53;8.70;;;2.00;;
67053;SDS011;53960;51.826;5.850;2024-02-23T01:20:18;7.97;;;2.17;;
67053;SDS011;53960;51.826;5.850;2024-02-23T01:22:43;8.43;;;1.73;;
67053;SDS011;53960;51.826;5.850;2024-02-23T01:25:08;9.07;;;1.80;;
67053;SDS011;53960;51.826;5.850;2024-02-23T01:27:34;12.83;;;1.73;;
67053;SDS011;53960;51.826;5.850;2024-02-23T01:29:59;7.35;;;1.70;;
67053;SDS011;53960;51.826;5.850;2024-02-23T01:32:25;5.33;;;1.30;;
67053;SDS011;53960;51.826;5.850;2024-02-23T01:34:50;5.67;;;1.27;;
67053;SDS011;53960;51.826;5.850;2024-02-23T01:37:15;5.23;;;1.07;;
67053;SDS011;53960;51.826;5.850;2024-02-23T01:39:41;6.97;;;1.00;;
67053;SDS011;53960;51.826;5.850;2024-02-23T01:42:06;6.27;;;1.37;;
67053;SDS011;53960;51.826;5.850;2024-02-23T01:44:31;8.43;;;1.05;;
67053;SDS011;53960;51.826;5.850;2024-02-23T01:46:57;5.37;;;1.07;;
67053;SDS011;53960;51.826;5.850;2024-02-23T01:49:22;3.50;;;0.70;;
67053;SDS011;53960;51.826;5.850;2024-02-23T01:51:54;7.10;;;0.80;;
67053;SDS011;53960;51.826;5.850;2024-02-23T01:54:23;5.25;;;1.13;;
67053;SDS011;53960;51.826;5.850;2024-02-23T01:56:50;6.83;;;1.17;;
67053;SDS011;53960;51.826;5.850;2024-02-23T01:59:16;8.20;;;1.23;;
67053;SDS011;53960;51.826;5.850;2024-02-23T02:01:42;4.57;;;0.75;;
67053;SDS011;53960;51.826;5.850;2024-02-23T02:04:09;6.22;;;1.00;;
67053;SDS011;53960;51.826;5.850;2024-02-23T02:06:34;4.80;;;1.00;;
67053;SDS011;53960;51.826;5.850;2024-02-23T02:08:59;4.53;;;0.80;;
67053;SDS011;53960;51.826;5.850;2024-02-23T02:11:25;5.27;;;1.20;;
67053;SDS011;53960;51.826;5.850;2024-02-23T02:13:50;7.37;;;0.97;;
67053;SDS011;53960;51.826;5.850;2024-02-23T02:16:15;8.47;;;1.30;;
67053;SDS011;53960;51.826;5.850;2024-02-23T02:18:41;5.13;;;1.00;;
67053;SDS011;53960;51.826;5.850;2024-02-23T02:21:06;5.70;;;0.90;;
67053;SDS011;53960;51.826;5.850;2024-02-23T02:23:31;6.93;;;0.80;;
67053;SDS011;53960;51.826;5.850;2024-02-23T02:25:57;5.50;;;0.90;;
67053;SDS011;53960;51.826;5.850;2024-02-23T02:28:24;7.18;;;1.00;;
67053;SDS011;53960;51.826;5.850;2024-02-23T02:30:50;3.38;;;0.52;;
67053;SDS011;53960;51.826;5.850;2024-02-23T02:33:17;4.78;;;0.75;;
67053;SDS011;53960;51.826;5.850;2024-02-23T02:35:42;12.57;;;1.17;;
67053;SDS011;53960;51.826;5.850;2024-02-23T02:38:07;3.90;;;1.00;;
67053;SDS011;53960;51.826;5.850;2024-02-23T02:40:33;4.87;;;0.90;;
67053;SDS011;53960;51.826;5.850;2024-02-23T02:42:58;5.03;;;1.23;;
67053;SDS011;53960;51.826;5.850;2024-02-23T02:45:23;5.37;;;0.90;;
67053;SDS011;53960;51.826;5.850;2024-02-23T02:47:49;6.00;;;1.02;;
67053;SDS011;53960;51.826;5.850;2024-02-23T02:50:14;4.20;;;0.77;;
67053;SDS011;53960;51.826;5.850;2024-02-23T02:52:40;4.37;;;0.90;;
67053;SDS011;53960;51.826;5.850;2024-02-23T02:55:05;5.93;;;0.90;;
67053;SDS011;53960;51.826;5.850;2024-02-23T02:57:31;4.32;;;0.85;;
67053;SDS011;53960;51.826;5.850;2024-02-23T02:59:56;6.53;;;1.00;;
67053;SDS011;53960;51.826;5.850;2024-02-23T03:02:22;5.70;;;1.10;;
67053;SDS011;53960;51.826;5.850;2024-02-23T03:04:50;2.57;;;0.60;;
67053;SDS011;53960;51.826;5.850;2024-02-23T03:07:16;7.22;;;0.98;;
67053;SDS011;53960;51.826;5.850;2024-02-23T03:09:41;7.05;;;1.08;;
67053;SDS011;53960;51.826;5.850;2024-02-23T03:12:07;3.83;;;0.73;;
67053;SDS011;53960;51.826;5.850;2024-02-23T03:14:32;6.07;;;1.37;;
67053;SDS011;53960;51.826;5.850;2024-02-23T03:16:58;6.97;;;1.50;;
67053;SDS011;53960;51.826;5.850;2024-02-23T03:19:24;7.55;;;0.93;;
67053;SDS011;53960;51.826;5.850;2024-02-23T03:21:50;6.65;;;1.10;;
67053;SDS011;53960;51.826;5.850;2024-02-23T03:24:16;6.47;;;0.80;;
67053;SDS011;53960;51.826;5.850;2024-02-23T03:26:42;5.93;;;0.93;;
67053;SDS011;53960;51.826;5.850;2024-02-23T03:29:07;7.28;;;1.48;;
67053;SDS011;53960;51.826;5.850;2024-02-23T03:31:33;4.68;;;0.75;;
67053;SDS011;53960;51.826;5.850;2024-02-23T03:33:59;6.20;;;0.70;;
67053;SDS011;53960;51.826;5.850;2024-02-23T03:36:24;5.20;;;0.80;;
67053;SDS011;53960;51.826;5.850;2024-02-23T03:38:49;3.93;;;0.80;;
67053;SDS011;53960;51.826;5.850;2024-02-23T03:41:15;7.50;;;0.83;;
67053;SDS011;53960;51.826;5.850;2024-02-23T03:43:40;5.67;;;0.80;;
67053;SDS011;53960;51.826;5.850;2024-02-23T03:46:05;6.70;;;0.87;;
67053;SDS011;53960;51.826;5.850;2024-02-23T03:48:31;5.82;;;0.90;;
67053;SDS011;53960;51.826;5.850;2024-02-23T03:50:57;8.13;;;1.15;;
67053;SDS011;53960;51.826;5.850;2024-02-23T03:53:22;4.97;;;0.80;;
67053;SDS011;53960;51.826;5.850;2024-02-23T03:55:48;5.53;;;1.00;;
67053;SDS011;53960;51.826;5.850;2024-02-23T03:58:13;4.90;;;0.63;;
67053;SDS011;53960;51.826;5.850;2024-02-23T04:00:39;5.37;;;1.03;;
67053;SDS011;53960;51.826;5.850;2024-02-23T04:03:04;7.07;;;0.90;;
67053;SDS011;53960;51.826;5.850;2024-02-23T04:05:29;6.43;;;0.90;;
67053;SDS011;53960;51.826;5.850;2024-02-23T04:07:55;4.23;;;0.80;;
67053;SDS011;53960;51.826;5.850;2024-02-23T04:10:20;4.93;;;0.90;;
67053;SDS011;53960;51.826;5.850;2024-02-23T04:12:46;4.82;;;0.90;;
67053;SDS011;53960;51.826;5.850;2024-02-23T04:15:12;4.90;;;0.90;;
67053;SDS011;53960;51.826;5.850;2024-02-23T04:17:37;7.13;;;0.90;;
67053;SDS011;53960;51.826;5.850;2024-02-23T04:20:05;3.57;;;0.87;;
67053;SDS011;53960;51.826;5.850;2024-02-23T04:22:32;3.50;;;0.70;;
67053;SDS011;53960;51.826;5.850;2024-02-23T04:24:58;2.93;;;0.70;;
67053;SDS011;53960;51.826;5.850;2024-02-23T04:27:23;5.87;;;0.70;;
67053;SDS011;53960;51.826;5.850;2024-02-23T04:29:48;6.10;;;1.08;;
67053;SDS011;53960;51.826;5.850;2024-02-23T04:32:14;3.77;;;0.70;;
67053;SDS011;53960;51.826;5.850;2024-02-23T04:34:39;7.07;;;1.00;;
67053;SDS011;53960;51.826;5.850;2024-02-23T04:37:06;3.55;;;0.90;;
67053;SDS011;53960;51.826;5.850;2024-02-23T04:39:31;5.20;;;1.17;;
67053;SDS011;53960;51.826;5.850;2024-02-23T04:41:57;8.05;;;1.48;;
67053;SDS011;53960;51.826;5.850;2024-02-23T04:44:23;10.47;;;1.50;;
67053;SDS011;53960;51.826;5.850;2024-02-23T04:46:48;6.13;;;1.30;;
67053;SDS011;53960;51.826;5.850;2024-02-23T04:49:14;6.63;;;1.63;;
67053;SDS011;53960;51.826;5.850;2024-02-23T04:51:39;7.03;;;1.17;;
67053;SDS011;53960;51.826;5.850;2024-02-23T04:54:04;7.00;;;1.83;;
67053;SDS011;53960;51.826;5.850;2024-02-23T04:56:29;7.47;;;1.00;;
67053;SDS011;53960;51.826;5.850;2024-02-23T04:58:55;6.53;;;1.10;;
67053;SDS011;53960;51.826;5.850;2024-02-23T05:01:20;4.73;;;0.80;;
67053;SDS011;53960;51.826;5.850;2024-02-23T05:03:45;9.05;;;1.38;;
67053;SDS011;53960;51.826;5.850;2024-02-23T05:06:11;11.00;;;1.33;;
67053;SDS011;53960;51.826;5.850;2024-02-23T05:08:37;8.50;;;1.33;;
67053;SDS011;53960;51.826;5.850;2024-02-23T05:11:03;7.72;;;1.45;;
67053;SDS011;53960;51.826;5.850;2024-02-23T05:13:28;4.97;;;0.90;;
67053;SDS011;53960;51.826;5.850;2024-02-23T05:15:55;7.53;;;1.20;;
67053;SDS011;53960;51.826;5.850;2024-02-23T05:18:20;6.93;;;1.08;;
67053;SDS011;53960;51.826;5.850;2024-02-23T05:20:46;5.33;;;1.20;;
67053;SDS011;53960;51.826;5.850;2024-02-23T05:23:11;7.37;;;1.63;;
67053;SDS011;53960;51.826;5.850;2024-02-23T05:25:37;6.10;;;1.37;;
67053;SDS011;53960;51.826;5.850;2024-02-23T05:28:02;9.43;;;1.90;;
67053;SDS011;53960;51.826;5.850;2024-02-23T05:30:27;5.60;;;1.20;;
67053;SDS011;53960;51.826;5.850;2024-02-23T05:32:56;8.05;;;1.52;;
67053;SDS011;53960;51.826;5.850;2024-02-23T05:35:22;6.47;;;1.17;;
67053;SDS011;53960;51.826;5.850;2024-02-23T05:37:47;8.10;;;1.60;;
67053;SDS011;53960;51.826;5.850;2024-02-23T05:40:14;7.27;;;1.60;;
67053;SDS011;53960;51.826;5.850;2024-02-23T05:42:40;7.68;;;1.20;;
67053;SDS011;53960;51.826;5.850;2024-02-23T05:45:08;6.83;;;1.20;;
67053;SDS011;53960;51.826;5.850;2024-02-23T05:47:34;7.05;;;1.50;;
67053;SDS011;53960;51.826;5.850;2024-02-23T05:50:02;7.57;;;1.30;;
67053;SDS011;53960;51.826;5.850;2024-02-23T05:52:28;7.30;;;1.00;;
67053;SDS011;53960;51.826;5.850;2024-02-23T05:54:53;7.83;;;1.00;;
67053;SDS011;53960;51.826;5.850;2024-02-23T05:57:21;7.82;;;1.30;;
67053;SDS011;53960;51.826;5.850;2024-02-23T05:59:46;6.83;;;1.23;;
67053;SDS011;53960;51.826;5.850;2024-02-23T06:02:11;5.00;;;1.10;;
67053;SDS011;53960;51.826;5.850;2024-02-23T06:04:39;5.78;;;1.25;;
67053;SDS011;53960;51.826;5.850;2024-02-23T06:07:05;6.90;;;1.00;;
67053;SDS011;53960;51.826;5.850;2024-02-23T06:09:30;4.27;;;0.90;;
67053;SDS011;53960;51.826;5.850;2024-02-23T06:11:56;7.53;;;1.20;;
67053;SDS011;53960;51.826;5.850;2024-02-23T06:14:21;10.13;;;1.10;;
67053;SDS011;53960;51.826;5.850;2024-02-23T06:16:48;6.27;;;0.90;;
67053;SDS011;53960;51.826;5.850;2024-02-23T06:19:14;6.72;;;0.95;;
67053;SDS011;53960;51.826;5.850;2024-02-23T06:21:40;9.77;;;1.35;;
67053;SDS011;53960;51.826;5.850;2024-02-23T06:24:05;8.30;;;0.80;;
67053;SDS011;53960;51.826;5.850;2024-02-23T06:26:32;6.72;;;1.30;;
67053;SDS011;53960;51.826;5.850;2024-02-23T06:28:58;6.73;;;0.87;;
67053;SDS011;53960;51.826;5.850;2024-02-23T06:31:23;6.23;;;1.20;;
67053;SDS011;53960;51.826;5.850;2024-02-23T06:33:48;5.53;;;0.90;;
67053;SDS011;53960;51.826;5.850;2024-02-23T06:36:16;7.50;;;1.10;;
67053;SDS011;53960;51.826;5.850;2024-02-23T06:38:41;6.67;;;1.20;;
67053;SDS011;53960;51.826;5.850;2024-02-23T06:41:07;7.20;;;1.57;;
67053;SDS011;53960;51.826;5.850;2024-02-23T06:43:35;7.80;;;1.00;;
67053;SDS011;53960;51.826;5.850;2024-02-23T06:46:07;8.83;;;1.70;;
67053;SDS011;53960;51.826;5.850;2024-02-23T06:48:36;6.00;;;0.90;;
67053;SDS011;53960;51.826;5.850;2024-02-23T06:51:04;8.88;;;1.00;;
67053;SDS011;53960;51.826;5.850;2024-02-23T06:53:30;6.40;;;1.05;;
67053;SDS011;53960;51.826;5.850;2024-02-23T06:55:56;7.13;;;1.10;;
67053;SDS011;53960;51.826;5.850;2024-02-23T06:58:21;7.15;;;1.25;;
67053;SDS011;53960;51.826;5.850;2024-02-23T07:00:47;6.77;;;1.20;;
67053;SDS011;53960;51.826;5.850;2024-02-23T07:03:12;10.40;;;1.37;;
67053;SDS011;53960;51.826;5.850;2024-02-23T07:05:39;4.63;;;1.15;;
67053;SDS011;53960;51.826;5.850;2024-02-23T07:08:06;8.30;;;1.35;;
67053;SDS011;53960;51.826;5.850;2024-02-23T07:10:31;5.57;;;1.00;;
67053;SDS011;53960;51.826;5.850;2024-02-23T07:12:57;9.03;;;1.57;;
67053;SDS011;53960;51.826;5.850;2024-02-23T07:15:23;8.15;;;1.20;;
67053;SDS011;53960;51.826;5.850;2024-02-23T07:17:49;7.93;;;1.17;;
67053;SDS011;53960;51.826;5.850;2024-02-23T07:20:15;8.90;;;1.23;;
67053;SDS011;53960;51.826;5.850;2024-02-23T07:22:43;10.50;;;1.50;;
67053;SDS011;53960;51.826;5.850;2024-02-23T07:25:11;9.55;;;1.20;;
67053;SDS011;53960;51.826;5.850;2024-02-23T07:27:41;7.05;;;1.23;;
67053;SDS011;53960;51.826;5.850;2024-02-23T07:30:06;6.33;;;1.50;;
67053;SDS011;53960;51.826;5.850;2024-02-23T07:32:32;7.73;;;1.30;;
67053;SDS011;53960;51.826;5.850;2024-02-23T07:34:57;7.97;;;1.37;;
67053;SDS011;53960;51.826;5.850;2024-02-23T07:37:23;5.32;;;1.08;;
67053;SDS011;53960;51.826;5.850;2024-02-23T07:39:51;5.30;;;1.10;;
67053;SDS011;53960;51.826;5.850;2024-02-23T07:42:17;7.28;;;1.23;;
67053;SDS011;53960;51.826;5.850;2024-02-23T07:44:43;7.75;;;1.40;;
67053;SDS011;53960;51.826;5.850;2024-02-23T07:47:09;8.43;;;1.23;;
67053;SDS011;53960;51.826;5.850;2024-02-23T07:49:34;8.75;;;1.30;;
67053;SDS011;53960;51.826;5.850;2024-02-23T07:52:00;6.13;;;0.90;;
67053;SDS011;53960;51.826;5.850;2024-02-23T07:54:26;6.40;;;1.20;;
67053;SDS011;53960;51.826;5.850;2024-02-23T07:56:51;6.53;;;1.40;;
67053;SDS011;53960;51.826;5.850;2024-02-23T07:59:16;7.10;;;1.20;;
67053;SDS011;53960;51.826;5.850;2024-02-23T08:01:42;8.60;;;1.13;;
67053;SDS011;53960;51.826;5.850;2024-02-23T08:04:07;6.23;;;1.63;;
67053;SDS011;53960;51.826;5.850;2024-02-23T08:06:32;9.23;;;1.47;;
67053;SDS011;53960;51.826;5.850;2024-02-23T08:08:58;7.97;;;1.53;;
67053;SDS011;53960;51.826;5.850;2024-02-23T08:11:23;7.73;;;1.30;;
67053;SDS011;53960;51.826;5.850;2024-02-23T08:13:48;5.90;;;1.30;;
67053;SDS011;53960;51.826;5.850;2024-02-23T08:16:15;5.10;;;1.00;;
67053;SDS011;53960;51.826;5.850;2024-02-23T08:18:42;7.73;;;1.00;;
67053;SDS011;53960;51.826;5.850;2024-02-23T08:21:07;9.52;;;1.00;;
67053;SDS011;53960;51.826;5.850;2024-02-23T08:23:35;6.63;;;0.97;;
67053;SDS011;53960;51.826;5.850;2024-02-23T08:26:01;6.20;;;1.05;;
67053;SDS011;53960;51.826;5.850;2024-02-23T08:28:26;5.13;;;0.90;;
67053;SDS011;53960;51.826;5.850;2024-02-23T08:30:52;5.50;;;0.73;;
67053;SDS011;53960;51.826;5.850;2024-02-23T08:33:18;4.83;;;1.10;;
67053;SDS011;53960;51.826;5.850;2024-02-23T08:35:43;6.27;;;1.10;;
67053;SDS011;53960;51.826;5.850;2024-02-23T08:38:08;6.23;;;0.93;;
67053;SDS011;53960;51.826;5.850;2024-02-23T08:40:34;5.80;;;0.90;;
67053;SDS011;53960;51.826;5.850;2024-02-23T08:43:00;4.60;;;0.83;;
67053;SDS011;53960;51.826;5.850;2024-02-23T08:45:25;3.90;;;0.90;;
67053;SDS011;53960;51.826;5.850;2024-02-23T08:47:51;7.90;;;1.00;;
67053;SDS011;53960;51.826;5.850;2024-02-23T08:50:16;8.97;;;1.00;;
67053;SDS011;53960;51.826;5.850;2024-02-23T08:52:41;8.07;;;1.27;;
67053;SDS011;53960;51.826;5.850;2024-02-23T08:55:07;7.23;;;1.00;;
67053;SDS011;53960;51.826;5.850;2024-02-23T08:57:32;11.13;;;1.65;;
67053;SDS011;53960;51.826;5.850;2024-02-23T08:59:58;6.80;;;1.00;;
67053;SDS011;53960;51.826;5.850;2024-02-23T09:02:24;7.30;;;1.10;;
67053;SDS011;53960;51.826;5.850;2024-02-23T09:04:49;7.90;;;0.93;;
67053;SDS011;53960;51.826;5.850;2024-02-23T09:07:14;5.67;;;0.93;;
67053;SDS011;53960;51.826;5.850;2024-02-23T09:09:40;8.23;;;0.90;;
67053;SDS011;53960;51.826;5.850;2024-02-23T09:12:08;5.20;;;1.13;;
67053;SDS011;53960;51.826;5.850;2024-02-23T09:14:35;7.45;;;1.00;;
67053;SDS011;53960;51.826;5.850;2024-02-23T09:17:02;5.93;;;1.08;;
67053;SDS011;53960;51.826;5.850;2024-02-23T09:19:28;7.57;;;0.90;;
67053;SDS011;53960;51.826;5.850;2024-02-23T09:21:53;7.33;;;0.90;;
67053;SDS011;53960;51.826;5.850;2024-02-23T09:24:19;5.43;;;0.85;;
67053;SDS011;53960;51.826;5.850;2024-02-23T09:26:46;5.93;;;0.90;;
67053;SDS011;53960;51.826;5.850;2024-02-23T09:29:12;6.55;;;1.10;;
67053;SDS011;53960;51.826;5.850;2024-02-23T09:31:37;8.90;;;1.03;;
67053;SDS011;53960;51.826;5.850;2024-02-23T09:34:03;5.80;;;1.00;;
67053;SDS011;53960;51.826;5.850;2024-02-23T09:36:28;8.07;;;1.00;;
67053;SDS011;53960;51.826;5.850;2024-02-23T09:38:55;8.60;;;1.15;;
67053;SDS011;53960;51.826;5.850;2024-02-23T09:41:21;4.40;;;0.80;;
67053;SDS011;53960;51.826;5.850;2024-02-23T09:43:48;9.95;;;1.27;;
67053;SDS011;53960;51.826;5.850;2024-02-23T09:46:14;5.35;;;1.10;;
67053;SDS011;53960;51.826;5.850;2024-02-23T09:48:41;6.28;;;1.00;;
67053;SDS011;53960;51.826;5.850;2024-02-23T09:51:08;4.72;;;1.00;;
67053;SDS011;53960;51.826;5.850;2024-02-23T09:53:36;5.57;;;1.00;;
67053;SDS011;53960;51.826;5.850;2024-02-23T09:56:03;7.28;;;1.02;;
67053;SDS011;53960;51.826;5.850;2024-02-23T09:58:29;4.95;;;0.95;;
67053;SDS011;53960;51.826;5.850;2024-02-23T10:00:57;6.85;;;1.00;;
67053;SDS011;53960;51.826;5.850;2024-02-23T10:03:24;6.03;;;1.20;;
67053;SDS011;53960;51.826;5.850;2024-02-23T10:05:53;6.00;;;1.00;;
67053;SDS011;53960;51.826;5.850;2024-02-23T10:08:19;7.35;;;1.10;;
67053;SDS011;53960;51.826;5.850;2024-02-23T10:10:45;4.30;;;0.93;;
67053;SDS011;53960;51.826;5.850;2024-02-23T10:13:12;6.13;;;1.00;;
67053;SDS011;53960;51.826;5.850;2024-02-23T10:15:37;8.60;;;1.20;;
67053;SDS011;53960;51.826;5.850;2024-02-23T10:18:03;7.97;;;1.30;;
67053;SDS011;53960;51.826;5.850;2024-02-23T10:20:29;5.63;;;1.10;;
67053;SDS011;53960;51.826;5.850;2024-02-23T10:22:55;6.60;;;0.90;;
67053;SDS011;53960;51.826;5.850;2024-02-23T10:25:21;5.45;;;0.90;;
67053;SDS011;53960;51.826;5.850;2024-02-23T10:27:47;8.03;;;1.17;;
67053;SDS011;53960;51.826;5.850;2024-02-23T10:30:12;9.67;;;1.80;;
67053;SDS011;53960;51.826;5.850;2024-02-23T10:32:40;4.20;;;0.77;;
67053;SDS011;53960;51.826;5.850;2024-02-23T10:35:07;5.93;;;0.95;;
67053;SDS011;53960;51.826;5.850;2024-02-23T10:37:35;5.13;;;0.85;;
67053;SDS011;53960;51.826;5.850;2024-02-23T10:40:01;4.50;;;0.70;;
67053;SDS011;53960;51.826;5.850;2024-02-23T10:42:30;4.60;;;0.70;;
67053;SDS011;53960;51.826;5.850;2024-02-23T10:45:00;4.82;;;0.70;;
67053;SDS011;53960;51.826;5.850;2024-02-23T10:47:26;6.47;;;1.10;;
67053;SDS011;53960;51.826;5.850;2024-02-23T10:49:53;6.47;;;0.90;;
67053;SDS011;53960;51.826;5.850;2024-02-23T10:52:19;5.90;;;0.98;;
67053;SDS011;53960;51.826;5.850;2024-02-23T10:54:48;4.60;;;0.77;;
67053;SDS011;53960;51.826;5.850;2024-02-23T10:57:16;5.35;;;0.90;;
67053;SDS011;53960;51.826;5.850;2024-02-23T10:59:44;5.63;;;0.80;;
67053;SDS011;53960;51.826;5.850;2024-02-23T11:02:14;4.70;;;0.88;;
67053;SDS011;53960;51.826;5.850;2024-02-23T11:04:43;4.15;;;0.90;;
67053;SDS011;53960;51.826;5.850;2024-02-23T11:07:15;6.95;;;0.82;;
67053;SDS011;53960;51.826;5.850;2024-02-23T11:09:40;5.50;;;0.77;;
67053;SDS011;53960;51.826;5.850;2024-02-23T11:12:06;4.90;;;0.80;;
67053;SDS011;53960;51.826;5.850;2024-02-23T11:14:32;3.75;;;0.75;;
67053;SDS011;53960;51.826;5.850;2024-02-23T11:17:09;6.57;;;0.90;;
67053;SDS011;53960;51.826;5.850;2024-02-23T11:19:45;7.50;;;1.40;;
67053;SDS011;53960;51.826;5.850;2024-02-23T11:22:14;6.78;;;0.98;;
67053;SDS011;53960;51.826;5.850;2024-02-23T11:24:42;5.97;;;0.90;;
67053;SDS011;53960;51.826;5.850;2024-02-23T11:27:13;4.55;;;1.00;;
67053;SDS011;53960;51.826;5.850;2024-02-23T11:29:39;5.05;;;0.95;;
67053;SDS011;53960;51.826;5.850;2024-02-23T11:32:12;4.57;;;0.90;;
67053;SDS011;53960;51.826;5.850;2024-02-23T11:34:40;5.78;;;0.90;;
67053;SDS011;53960;51.826;5.850;2024-02-23T11:37:11;4.97;;;0.90;;
67053;SDS011;53960;51.826;5.850;2024-02-23T11:39:37;5.72;;;1.00;;
67053;SDS011;53960;51.826;5.850;2024-02-23T11:42:06;4.15;;;0.88;;
67053;SDS011;53960;51.826;5.850;2024-02-23T11:44:32;3.72;;;0.80;;
67053;SDS011;53960;51.826;5.850;2024-02-23T11:46:58;6.10;;;1.13;;
67053;SDS011;53960;51.826;5.850;2024-02-23T11:49:27;6.63;;;1.13;;
67053;SDS011;53960;51.826;5.850;2024-02-23T11:51:53;6.20;;;1.00;;
67053;SDS011;53960;51.826;5.850;2024-02-23T11:54:18;5.13;;;0.82;;
67053;SDS011;53960;51.826;5.850;2024-02-23T11:56:44;5.53;;;0.80;;
67053;SDS011;53960;51.826;5.850;2024-02-23T11:59:09;8.07;;;1.20;;
67053;SDS011;53960;51.826;5.850;2024-02-23T12:01:37;6.27;;;1.00;;
67053;SDS011;53960;51.826;5.850;2024-02-23T12:04:03;5.33;;;1.13;;
67053;SDS011;53960;51.826;5.850;2024-02-23T12:06:29;3.72;;;0.90;;
67053;SDS011;53960;51.826;5.850;2024-02-23T12:08:56;6.57;;;1.03;;
67053;SDS011;53960;51.826;5.850;2024-02-23T12:11:21;4.57;;;0.80;;
67053;SDS011;53960;51.826;5.850;2024-02-23T12:13:47;5.13;;;1.10;;
67053;SDS011;53960;51.826;5.850;2024-02-23T12:16:13;5.87;;;0.90;;
67053;SDS011;53960;51.826;5.850;2024-02-23T12:18:39;6.63;;;1.03;;
67053;SDS011;53960;51.826;5.850;2024-02-23T12:21:05;5.93;;;1.00;;
67053;SDS011;53960;51.826;5.850;2024-02-23T12:23:44;6.53;;;1.23;;
67053;SDS011;53960;51.826;5.850;2024-02-23T12:26:11;7.57;;;1.27;;
67053;SDS011;53960;51.826;5.850;2024-02-23T12:28:41;8.57;;;1.10;;
67053;SDS011;53960;51.826;5.850;2024-02-23T12:31:06;5.03;;;1.00;;
67053;SDS011;53960;51.826;5.850;2024-02-23T12:33:33;5.07;;;0.90;;
67053;SDS011;53960;51.826;5.850;2024-02-23T12:36:00;4.78;;;1.02;;
67053;SDS011;53960;51.826;5.850;2024-02-23T12:38:26;6.47;;;1.20;;
67053;SDS011;53960;51.826;5.850;2024-02-23T12:40:52;4.67;;;0.90;;
67053;SDS011;53960;51.826;5.850;2024-02-23T12:43:17;6.50;;;1.05;;
67053;SDS011;53960;51.826;5.850;2024-02-23T12:45:43;5.97;;;1.00;;
67053;SDS011;53960;51.826;5.850;2024-02-23T12:48:14;8.38;;;1.02;;
67053;SDS011;53960;51.826;5.850;2024-02-23T12:50:39;5.50;;;0.93;;
67053;SDS011;53960;51.826;5.850;2024-02-23T12:53:05;5.43;;;1.30;;
67053;SDS011;53960;51.826;5.850;2024-02-23T12:55:30;6.17;;;1.10;;
67053;SDS011;53960;51.826;5.850;2024-02-23T12:57:56;5.23;;;1.00;;
67053;SDS011;53960;51.826;5.850;2024-02-23T13:00:21;5.60;;;0.90;;
67053;SDS011;53960;51.826;5.850;2024-02-23T13:02:46;8.50;;;1.00;;
67053;SDS011;53960;51.826;5.850;2024-02-23T13:05:12;5.78;;;1.33;;
67053;SDS011;53960;51.826;5.850;2024-02-23T13:07:37;7.50;;;1.10;;
67053;SDS011;53960;51.826;5.850;2024-02-23T13:10:05;7.20;;;1.33;;
67053;SDS011;53960;51.826;5.850;2024-02-23T13:12:32;5.03;;;1.00;;
67053;SDS011;53960;51.826;5.850;2024-02-23T13:14:57;6.20;;;1.00;;
67053;SDS011;53960;51.826;5.850;2024-02-23T13:17:23;4.03;;;1.00;;
67053;SDS011;53960;51.826;5.850;2024-02-23T13:19:48;4.73;;;1.30;;
67053;SDS011;53960;51.826;5.850;2024-02-23T13:22:14;6.80;;;1.00;;
67053;SDS011;53960;51.826;5.850;2024-02-23T13:24:39;6.40;;;1.25;;
67053;SDS011;53960;51.826;5.850;2024-02-23T13:27:05;6.07;;;1.10;;
67053;SDS011;53960;51.826;5.850;2024-02-23T13:29:30;5.40;;;1.20;;
67053;SDS011;53960;51.826;5.850;2024-02-23T13:31:56;5.43;;;0.90;;
67053;SDS011;53960;51.826;5.850;2024-02-23T13:34:21;7.87;;;1.07;;
67053;SDS011;53960;51.826;5.850;2024-02-23T13:36:47;5.53;;;1.00;;
67053;SDS011;53960;51.826;5.850;2024-02-23T13:39:14;6.15;;;0.90;;
67053;SDS011;53960;51.826;5.850;2024-02-23T13:41:39;7.77;;;1.13;;
67053;SDS011;53960;51.826;5.850;2024-02-23T13:44:05;6.10;;;0.93;;
67053;SDS011;53960;51.826;5.850;2024-02-23T13:46:30;7.28;;;1.00;;
67053;SDS011;53960;51.826;5.850;2024-02-23T13:49:07;7.80;;;1.40;;
67053;SDS011;53960;51.826;5.850;2024-02-23T13:51:34;4.33;;;0.80;;
67053;SDS011;53960;51.826;5.850;2024-02-23T13:54:00;6.95;;;1.00;;
67053;SDS011;53960;51.826;5.850;2024-02-23T13:56:25;4.47;;;1.00;;
67053;SDS011;53960;51.826;5.850;2024-02-23T13:58:51;7.65;;;1.00;;
67053;SDS011;53960;51.826;5.850;2024-02-23T14:01:16;5.80;;;1.03;;
67053;SDS011;53960;51.826;5.850;2024-02-23T14:03:42;5.93;;;1.10;;
67053;SDS011;53960;51.826;5.850;2024-02-23T14:06:07;8.17;;;1.40;;
67053;SDS011;53960;51.826;5.850;2024-02-23T14:08:33;5.80;;;1.02;;
67053;SDS011;53960;51.826;5.850;2024-02-23T14:11:02;7.85;;;1.10;;
67053;SDS011;53960;51.826;5.850;2024-02-23T14:13:30;5.30;;;1.05;;
67053;SDS011;53960;51.826;5.850;2024-02-23T14:15:56;5.90;;;1.00;;
67053;SDS011;53960;51.826;5.850;2024-02-23T14:18:21;5.67;;;1.10;;
67053;SDS011;53960;51.826;5.850;2024-02-23T14:20:47;6.00;;;1.00;;
67053;SDS011;53960;51.826;5.850;2024-02-23T14:23:14;6.60;;;1.13;;
67053;SDS011;53960;51.826;5.850;2024-02-23T14:25:39;8.23;;;1.50;;
67053;SDS011;53960;51.826;5.850;2024-02-23T14:28:05;6.03;;;0.80;;
67053;SDS011;53960;51.826;5.850;2024-02-23T14:30:30;6.00;;;1.00;;
67053;SDS011;53960;51.826;5.850;2024-02-23T14:32:55;6.17;;;1.17;;
67053;SDS011;53960;51.826;5.850;2024-02-23T14:35:21;8.17;;;1.33;;
67053;SDS011;53960;51.826;5.850;2024-02-23T14:37:46;7.17;;;1.17;;
67053;SDS011;53960;51.826;5.850;2024-02-23T14:40:11;5.33;;;1.27;;